Latest Weather Observations for Latrobe Valley

IDV60801

Issued at 6:35 pm EST Tuesday 29 July 2014 (issued every 30 minutes, with the page automatically refreshed every 10 minutes)

About weather observations | Map of weather stations | Latest weather observations for VIC | Other Formats
Station Details ID: 085280 Name: LATROBE VALLEY AIRPORT Lat: -38.21 Lon: 146.47 Height: 55.7 m
Data from the previous 72 hours. | See also: Recent months at Latrobe Valley
Date/Time
EST
Temp
°C
App
Temp
°C
Dew
Point
Rel
Hum
%
Delta-T
°C
Wind Press
QNH
hPa
Press
MSL
hPa
Rain
since 9 am
mm
Dir
 
Spd
km/h
Gust
km/h
Spd
kts
Gust
kts
29/06:30pm 15.7 8.4 8.7 63 3.6 WNW 37 50 20 27 1006.2 - 0.0
29/06:00pm 16.0 7.4 8.2 60 4.0 NW 43 67 23 36 1006.1 1006.2 0.0
29/05:46pm 16.1 9.5 7.8 58 4.2 NW 32 50 17 27 1005.7 - 0.0
29/05:30pm 15.8 9.9 7.6 58 4.1 NW 28 43 15 23 1005.4 - 0.0
29/05:00pm 15.4 9.5 7.7 60 3.8 NW 28 56 15 30 1005.3 - 0.0
29/04:30pm 15.7 7.7 7.5 58 4.1 NW 39 63 21 34 1005.5 - 0.0
29/04:02pm 15.9 5.9 7.7 58 4.1 WNW 50 69 27 37 1005.6 - 0.0
29/04:00pm 15.9 5.5 7.7 58 4.1 WNW 52 69 28 37 1005.5 - 0.0
29/03:39pm 15.6 9.4 7.9 60 3.9 WNW 30 48 16 26 1005.8 - 0.0
29/03:30pm 15.7 8.9 7.7 59 4.0 WNW 33 46 18 25 1005.7 - 0.0
29/03:00pm 15.7 8.2 8.0 60 3.9 WNW 37 57 20 31 1005.7 1005.8 0.0
29/02:57pm 15.9 8.0 7.7 58 4.1 WNW 39 57 21 31 1005.4 - 0.0
29/02:30pm 15.7 8.6 8.0 60 3.9 WNW 35 50 19 27 1005.6 - 0.0
29/02:00pm 15.6 7.4 8.4 62 3.7 WNW 41 61 22 33 1005.6 - 0.0
29/01:50pm 15.8 9.6 7.8 59 4.0 WNW 30 50 16 27 1005.6 - 0.0
29/01:30pm 16.0 10.1 7.5 57 4.2 NW 28 39 15 21 1005.8 - 0.0
29/01:19pm 15.8 9.5 7.6 58 4.1 NW 30 52 16 28 1005.8 - 0.0
29/01:00pm 16.3 11.0 8.3 59 4.1 WNW 26 39 14 21 1006.0 - 0.0
29/12:35pm 16.1 9.5 7.8 58 4.2 WNW 32 50 17 27 1006.2 - 0.0
29/12:30pm 15.7 9.1 7.7 59 4.0 WNW 32 46 17 25 1006.6 - 0.0
29/12:05pm 15.8 8.5 7.0 56 4.3 WNW 35 56 19 30 1006.7 - 0.0
29/12:00pm 15.6 8.7 7.1 57 4.2 WNW 33 48 18 26 1007.0 1007.1 0.0
29/11:30am 15.3 7.5 6.8 57 4.2 WNW 37 54 20 29 1007.5 - 0.0
29/11:00am 17.6 11.9 8.2 54 4.8 WNW 28 48 15 26 1007.1 - 0.0
29/10:53am 17.0 10.7 7.6 54 4.7 WNW 30 48 16 26 1007.1 - 0.0
29/10:30am 15.4 9.4 7.2 58 4.1 WNW 28 39 15 21 1007.3 - 0.0
29/10:00am 15.7 8.4 7.0 56 4.3 WNW 35 54 19 29 1007.9 - 0.0
29/09:30am 15.9 8.3 7.4 57 4.2 WNW 37 65 20 35 1008.1 - 0.0
29/09:07am 15.2 8.2 6.7 57 4.2 WNW 33 56 18 30 1008.2 - 0.0
29/09:00am 14.7 7.6 6.5 58 4.0 WNW 33 46 18 25 1008.5 1008.6 0.0
29/08:32am 14.8 6.1 6.1 56 4.2 NW 41 59 22 32 1008.3 - 0.0
29/08:30am 14.7 6.4 6.0 56 4.2 NW 39 56 21 30 1008.3 - 0.0
29/08:00am 14.6 5.0 6.2 57 4.0 NW 46 72 25 39 1007.7 - 0.0
29/07:54am 14.6 4.2 6.2 57 4.0 NW 50 69 27 37 1007.6 - 0.0
29/07:52am 14.5 3.0 6.1 57 4.0 NW 56 69 30 37 1007.6 - 0.0
29/07:30am 14.3 7.2 6.4 59 3.8 WNW 33 52 18 28 1008.3 - 0.0
29/07:00am 13.9 7.7 6.3 60 3.6 WNW 28 46 15 25 1008.6 - 0.0
29/06:58am 14.0 7.9 6.4 60 3.7 WNW 28 46 15 25 1008.5 - 0.0
29/06:30am 14.2 9.1 5.8 57 4.0 WNW 22 39 12 21 1008.3 - 0.0
29/06:00am 13.7 8.9 5.6 58 3.8 WNW 20 30 11 16 1008.2 1008.3 0.0
29/05:30am 13.5 8.3 5.4 58 3.8 WNW 22 39 12 21 1008.3 - 0.0
29/05:00am 12.7 7.9 5.4 61 3.4 NW 20 32 11 17 1008.4 - 0.0
29/04:30am 11.6 8.2 5.9 68 2.7 WSW 13 19 7 10 1008.6 - 0.0
29/04:00am 11.5 7.7 5.8 68 2.7 WSW 15 20 8 11 1008.8 - 0.0
29/03:30am 11.6 7.9 6.1 69 2.6 W 15 20 8 11 1008.8 - 0.0
29/03:00am 11.0 6.9 6.0 71 2.3 W 17 20 9 11 1009.4 1009.5 0.0
29/02:30am 10.8 6.7 6.2 73 2.2 W 17 22 9 12 1009.8 - 0.0
29/02:00am 10.5 5.8 5.9 73 2.1 WSW 20 26 11 14 1010.3 - 0.0
29/01:30am 9.5 5.3 5.7 77 1.7 WSW 17 19 9 10 1010.4 - 0.0
29/01:00am 8.7 4.4 5.3 79 1.5 WSW 17 19 9 10 1010.9 - 0.0
29/12:30am 8.9 5.0 5.3 78 1.6 SW 15 17 8 9 1011.4 - 0.0
29/12:00am 9.1 5.9 5.3 77 1.7 SW 11 13 6 7 1011.5 1011.6 0.0
 
Date/Time
EST
Temp
°C
App
Temp
°C
Dew
Point
Rel
Hum
%
Delta-T
°C
Wind Press
QNH
hPa
Press
MSL
hPa
Rain
since 9 am
mm
Dir
 
Spd
km/h
Gust
km/h
Spd
kts
Gust
kts
28/11:30pm 9.1 6.3 5.1 76 1.8 SW 9 11 5 6 1011.6 - 0.0
28/11:00pm 9.5 6.4 5.5 76 1.8 SW 11 13 6 7 1011.8 - 0.0
28/10:30pm 10.3 6.5 5.7 73 2.1 SW 15 19 8 10 1011.9 - 0.0
28/10:00pm 8.7 4.8 5.3 79 1.5 WSW 15 17 8 9 1011.9 - 0.0
28/09:30pm 9.5 6.8 5.5 76 1.8 WNW 9 11 5 6 1011.9 - 0.0
28/09:00pm 9.2 6.0 5.2 76 1.8 NW 11 13 6 7 1012.1 1012.2 0.0
28/08:30pm 9.4 6.1 4.8 73 2.1 NW 11 17 6 9 1012.0 - 0.0
28/08:00pm 11.8 8.4 5.7 66 2.8 SW 13 15 7 8 1011.6 - 0.0
28/07:30pm 11.7 9.0 5.6 66 2.8 SSW 9 13 5 7 1011.8 - 0.0
28/07:00pm 12.1 8.9 5.3 63 3.2 WNW 11 15 6 8 1011.6 - 0.0
28/06:30pm 13.0 9.8 5.2 59 3.6 NW 11 15 6 8 1011.4 - 0.0
28/06:00pm 13.8 10.3 5.4 57 4.0 WNW 13 19 7 10 1011.4 1011.5 0.0
28/05:30pm 15.3 10.5 5.8 53 4.6 W 20 32 11 17 1011.6 - 0.0
28/05:00pm 16.0 11.3 6.2 52 4.8 W 20 30 11 16 1011.4 - 0.0
28/04:30pm 17.4 12.7 6.0 47 5.6 WNW 20 32 11 17 1010.8 - 0.0
28/04:00pm 17.7 11.4 5.9 46 5.8 WNW 28 41 15 22 1010.5 - 0.0
28/03:30pm 18.1 11.6 6.3 46 5.8 WNW 30 39 16 21 1010.8 - 0.0
28/03:11pm 18.2 11.2 5.8 44 6.1 WNW 32 52 17 28 1010.9 - 0.0
28/03:00pm 18.5 12.3 6.0 44 6.2 WNW 28 39 15 21 1011.1 1011.2 0.0
28/02:32pm 18.8 12.2 6.0 43 6.3 WNW 30 48 16 26 1011.2 - 0.0
28/02:30pm 18.8 11.9 6.3 44 6.2 WNW 32 48 17 26 1011.2 - 0.0
28/02:24pm 18.6 11.8 5.1 41 6.5 WNW 30 48 16 26 1011.2 - 0.0
28/02:00pm 18.9 12.7 6.1 43 6.3 WNW 28 43 15 23 1011.3 - 0.0
28/01:44pm 19.0 12.6 7.1 46 6.0 WNW 30 48 16 26 1011.6 - 0.0
28/01:30pm 18.8 12.7 6.6 45 6.1 WNW 28 37 15 20 1011.7 - 0.0
28/01:00pm 18.3 11.8 6.5 46 5.9 WNW 30 43 16 23 1012.2 - 0.0
28/12:30pm 18.0 11.7 7.4 50 5.4 W 30 39 16 21 1012.7 - 0.0
28/12:00pm 17.9 12.2 8.2 53 5.0 W 28 39 15 21 1013.3 1013.4 0.0
28/11:30am 17.2 13.2 8.4 56 4.5 W 19 24 10 13 1013.5 - 0.0
28/11:00am 15.8 15.2 9.0 64 3.5 NNE 2 7 1 4 1014.3 - 0.0
28/10:30am 14.6 13.6 9.0 69 2.9 N 4 7 2 4 1014.8 - 0.0
28/10:00am 12.6 10.9 8.3 75 2.1 NE 7 9 4 5 1015.0 - 0.0
28/09:30am 11.0 9.4 8.2 83 1.4 ENE 6 9 3 5 1015.3 - 0.0
28/09:00am 8.5 6.8 8.4 99 0.0 NNE 7 11 4 6 1015.4 1015.5 0.0
28/08:30am 6.5 4.0 6.5 100 0.0 NE 9 11 5 6 1015.6 - 0.0
28/08:00am 4.7 2.2 4.7 100 0.0 NE 7 9 4 5 1015.8 - 0.0
28/07:30am 3.1 0.3 3.0 99 0.0 E 7 9 4 5 1015.9 - 0.0
28/07:00am 4.3 1.7 4.3 100 0.0 ENE 7 11 4 6 1015.9 - 0.0
28/06:30am 3.4 0.6 3.4 100 0.0 ENE 7 11 4 6 1015.9 - 0.0
28/06:00am 2.6 -0.3 2.5 99 0.0 E 7 11 4 6 1015.9 1016.0 0.0
28/05:30am 1.8 0.1 1.7 99 0.0 CALM 0 0 0 0 1016.1 - 0.0
28/05:00am 1.9 0.2 1.8 99 0.0 CALM 0 6 0 3 1016.0 - 0.0
28/04:30am 1.6 -0.9 1.5 99 0.0 W 4 7 2 4 1016.1 - 0.0
28/04:19am 2.5 0.5 2.4 99 0.0 NNW 2 7 1 4 1016.2 - 0.0
28/04:03am 2.4 0.8 2.3 99 0.0 CALM 0 0 0 0 1016.2 - 0.0
28/04:00am 1.5 -0.3 1.4 99 0.0 CALM 0 0 0 0 1016.3 - 0.0
28/03:30am 1.8 0.1 1.7 99 0.0 CALM 0 0 0 0 1016.7 - 0.0
28/03:00am 3.2 1.7 3.1 99 0.0 CALM 0 0 0 0 1016.9 1017.0 0.0
28/02:30am 3.3 1.5 3.2 99 0.0 E 2 7 1 4 1017.2 - 0.0
28/02:00am 4.1 1.5 4.0 99 0.0 NNE 7 11 4 6 1017.5 - 0.0
28/01:30am 3.6 1.1 3.5 99 0.0 ENE 6 9 3 5 1017.8 - 0.0
28/01:00am 4.1 1.5 4.0 99 0.0 NE 7 13 4 7 1017.8 - 0.0
28/12:30am 4.0 1.8 3.3 95 0.3 NNE 4 7 2 4 1018.0 - 0.0
28/12:00am 5.7 3.4 4.7 93 0.4 SE 6 9 3 5 1018.5 1018.6 0.0
 
Date/Time
EST
Temp
°C
App
Temp
°C
Dew
Point
Rel
Hum
%
Delta-T
°C
Wind Press
QNH
hPa
Press
MSL
hPa
Rain
since 9 am
mm
Dir
 
Spd
km/h
Gust
km/h
Spd
kts
Gust
kts
27/11:30pm 6.7 4.5 5.5 92 0.5 SSE 6 7 3 4 1018.8 - 0.0
27/11:00pm 6.9 3.9 5.8 93 0.5 N 11 17 6 9 1019.2 - 0.0
27/10:30pm 6.3 3.2 5.7 96 0.3 NW 11 15 6 8 1019.6 - 0.0
27/10:00pm 6.1 3.6 4.7 91 0.6 N 7 11 4 6 1020.0 - 0.0
27/09:30pm 7.2 5.0 6.1 93 0.5 NE 7 9 4 5 1020.2 - 0.0
27/09:00pm 7.5 6.6 6.0 90 0.7 CALM 0 0 0 0 1020.1 1020.2 0.0
27/08:30pm 7.9 6.2 5.9 87 0.9 N 4 7 2 4 1020.2 - 0.0
27/08:00pm 9.1 7.5 6.4 83 1.3 SSE 4 9 2 5 1020.2 - 0.0
27/07:30pm 10.1 7.9 6.3 77 1.8 N 7 9 4 5 1020.1 - 0.0
27/07:00pm 11.7 8.0 6.2 69 2.6 N 15 17 8 9 1020.1 - 0.0
27/06:30pm 12.6 8.2 6.6 67 2.9 NW 19 24 10 13 1020.2 - 0.0
27/06:00pm 12.0 8.6 7.5 74 2.2 NW 15 24 8 13 1020.4 1020.5 0.0
27/05:30pm 11.8 8.7 7.3 74 2.2 W 13 17 7 9 1020.6 - 0.0
27/05:00pm 13.2 8.9 7.2 67 2.9 W 19 26 10 14 1020.4 - 0.0
27/04:30pm 13.3 9.4 6.9 65 3.1 W 17 22 9 12 1020.1 - 0.0
27/04:00pm 13.7 9.2 7.0 64 3.3 W 20 26 11 14 1020.1 - 0.0
27/03:30pm 14.2 9.6 6.3 59 3.8 W 20 26 11 14 1019.8 - 0.0
27/03:00pm 15.0 9.7 6.6 57 4.1 WNW 24 32 13 17 1019.9 1020.0 0.0
27/02:30pm 15.1 10.0 6.1 55 4.3 WNW 22 32 12 17 1020.0 - 0.0
27/02:00pm 15.8 11.5 7.8 59 4.0 WNW 20 28 11 15 1020.4 - 0.0
27/01:30pm 14.7 9.9 7.5 62 3.6 WNW 22 30 12 16 1020.6 - 0.0
27/01:00pm 14.5 9.4 7.8 64 3.3 WNW 24 33 13 18 1021.5 - 0.0
27/12:30pm 14.9 9.4 7.5 61 3.7 WNW 26 37 14 20 1021.7 - 0.0
27/12:00pm 14.6 10.0 8.3 66 3.2 WNW 22 28 12 15 1022.4 1022.5 0.0
27/11:30am 13.4 11.4 8.7 73 2.4 W 9 17 5 9 1023.2 - 0.0
27/11:00am 12.3 9.0 8.0 75 2.1 W 15 20 8 11 1023.9 - 0.0
27/10:30am 12.3 8.7 8.4 77 1.9 W 17 22 9 12 1024.3 - 0.0
27/10:00am 12.0 8.6 9.0 82 1.5 W 17 22 9 12 1024.5 - 0.0
27/09:30am 11.1 8.4 8.8 86 1.1 W 13 20 7 11 1024.5 - 0.0
27/09:00am 10.4 8.2 9.5 94 0.4 W 11 15 6 8 1024.6 1024.7 0.4
27/08:30am 9.1 7.2 9.0 99 0.0 WSW 9 13 5 7 1024.4 - 0.4
27/08:00am 7.8 5.2 7.7 99 0.0 W 11 13 6 7 1024.5 - 0.4
27/07:30am 7.4 4.3 7.3 99 0.0 W 13 15 7 8 1024.4 - 0.4
27/07:00am 7.6 4.9 7.2 97 0.2 W 11 13 6 7 1024.1 - 0.4
27/06:30am 8.8 5.9 8.2 96 0.3 W 13 19 7 10 1023.8 - 0.4
27/06:00am 10.0 6.6 9.1 94 0.4 W 17 20 9 11 1023.7 1023.8 0.4
27/05:30am 10.1 7.3 9.9 99 0.1 WNW 15 19 8 10 1023.7 - 0.4
27/05:00am 9.0 7.1 8.9 99 0.0 WNW 9 13 5 7 1023.7 - 0.4
27/04:30am 9.5 6.9 9.4 99 0.0 W 13 17 7 9 1023.6 - 0.4
27/04:00am 10.5 7.4 10.3 99 0.1 W 17 24 9 13 1023.8 - 0.4
27/03:30am 10.5 7.4 10.3 99 0.1 W 17 24 9 13 1023.9 - 0.4
27/03:22am 10.4 6.9 10.2 99 0.1 W 19 24 10 13 1023.9 - 0.4
27/03:00am 10.7 7.7 10.5 99 0.1 WNW 17 24 9 13 1023.9 1024.0 0.4
27/02:30am 10.9 7.5 10.7 99 0.1 WNW 19 26 10 14 1024.0 - 0.4
27/02:00am 11.0 6.7 10.8 99 0.1 W 24 32 13 17 1024.1 - 0.2
27/01:30am 11.0 7.5 10.8 99 0.1 WNW 20 26 11 14 1024.1 - 0.2
27/01:00am 11.2 7.7 11.0 99 0.1 W 20 26 11 14 1024.1 - 0.2
27/12:30am 11.1 7.2 10.9 99 0.1 WNW 22 30 12 16 1024.2 - 0.2
27/12:17am 11.1 7.2 10.9 99 0.1 WNW 22 28 12 15 1024.1 - 0.2
27/12:08am 11.1 7.6 10.9 99 0.1 WNW 20 28 11 15 1024.2 - 0.2
27/12:00am 11.1 7.6 10.9 99 0.1 W 20 28 11 15 1024.3 1024.4 0.2
 
Date/Time
EST
Temp
°C
App
Temp
°C
Dew
Point
Rel
Hum
%
Delta-T
°C
Wind Press
QNH
hPa
Press
MSL
hPa
Rain
since 9 am
mm
Dir
 
Spd
km/h
Gust
km/h
Spd
kts
Gust
kts
26/11:54pm 11.1 7.2 10.9 99 0.1 W 22 30 12 16 1024.3 - 0.2
26/11:30pm 11.2 7.4 11.0 99 0.1 W 22 30 12 16 1024.3 - 0.2
26/11:05pm 11.1 7.6 10.9 99 0.1 W 20 28 11 15 1024.4 - 0.2
26/11:00pm 11.1 7.2 10.9 99 0.1 W 22 32 12 17 1024.4 - 0.2
26/10:50pm 11.2 7.0 11.0 99 0.1 W 24 33 13 18 1024.3 - 0.2
26/10:30pm 11.2 7.4 11.0 99 0.1 W 22 32 12 17 1024.2 - 0.2
26/10:14pm 11.2 7.4 11.0 99 0.1 W 22 30 12 16 1024.2 - 0.2
26/10:00pm 11.2 7.0 11.0 99 0.1 W 24 32 13 17 1024.2 - 0.2
26/09:30pm 11.1 6.5 10.9 99 0.1 WNW 26 33 14 18 1024.1 - 0.2
26/09:05pm 11.3 7.1 11.1 99 0.1 W 24 32 13 17 1024.0 - 0.2
26/09:00pm 11.3 7.5 11.1 99 0.1 W 22 30 12 16 1024.0 1024.1 0.2
26/08:30pm 11.5 7.7 11.0 97 0.3 W 22 28 12 15 1023.7 - 0.2
26/08:16pm 11.5 7.7 11.2 98 0.2 W 22 28 12 15 1023.6 - 0.2
26/08:00pm 11.4 7.5 10.9 97 0.3 W 22 32 12 17 1023.4 - 0.2
26/07:30pm 11.6 7.8 11.0 96 0.3 W 22 30 12 16 1023.3 - 0.2
26/07:00pm 11.5 7.7 11.0 97 0.3 W 22 30 12 16 1023.2 - 0.2

Other Formats:

Comma delimited format used in spreadsheet applications
http://www.bom.gov.au/fwo/IDV60801/IDV60801.94891.axf

JavaScript Object Notation format (JSON) in row-major order
http://www.bom.gov.au/fwo/IDV60801/IDV60801.94891.json